Time;durP1;ratioP1;P1;durP2;ratioP2;P2;SDS_P1;SDS_P2;PMS_P1;PMS_P2;Temp;Humidity;BMP_temperature;BMP_pressure;BME280_temperature;BME280_humidity;BME280_pressure;Samples;Min_cycle;Max_cycle;Signal;HPM_P1;HPM_P2
2022/08/09 00:00:54;;;;;;;3.35;1.70;;;13.90;69.00;;;;;;4105431;28;20022;-87
2022/08/09 00:02:55;;;;;;;3.35;1.70;;;13.90;69.00;;;;;;4079953;28;20118;-87
2022/08/09 00:04:55;;;;;;;3.88;1.65;;;13.90;69.00;;;;;;4092013;28;20031;-86
2022/08/09 00:06:56;;;;;;;2.45;1.48;;;13.90;69.00;;;;;;4079653;29;20040;-87
2022/08/09 00:08:57;;;;;;;4.18;1.50;;;13.90;69.10;;;;;;4095589;28;20035;-88
2022/08/09 00:10:59;;;;;;;2.97;1.75;;;13.90;69.10;;;;;;4091832;29;20039;-87
2022/08/09 00:13:00;;;;;;;2.23;1.60;;;13.90;69.00;;;;;;4103809;28;20027;-88
2022/08/09 00:15:00;;;;;;;3.40;1.60;;;13.90;69.00;;;;;;4081299;29;20142;-87
2022/08/09 00:17:02;;;;;;;2.40;1.50;;;13.90;69.00;;;;;;4091769;28;20040;-87
2022/08/09 00:19:04;;;;;;;4.22;1.50;;;13.90;68.90;;;;;;4084305;29;20030;-88
2022/08/09 00:21:06;;;;;;;4.90;1.80;;;13.90;68.90;;;;;;4108852;28;20582;-88
2022/08/09 00:23:07;;;;;;;2.78;1.67;;;13.90;68.90;;;;;;4076486;29;20027;-86
2022/08/09 00:25:08;;;;;;;2.33;1.50;;;13.90;69.00;;;;;;4109660;28;20044;-86
2022/08/09 00:27:09;;;;;;;2.45;1.50;;;13.90;69.10;;;;;;4117664;28;20038;-87
2022/08/09 00:29:10;;;;;;;3.35;1.50;;;13.90;69.10;;;;;;4095303;28;20039;-87
2022/08/09 00:31:10;;;;;;;4.05;1.70;;;13.90;69.20;;;;;;4094312;28;20042;-87
2022/08/09 00:33:11;;;;;;;3.35;1.50;;;13.90;69.20;;;;;;4061874;29;20572;-87
2022/08/09 00:35:11;;;;;;;2.65;1.40;;;13.90;69.10;;;;;;4088646;28;20032;-88
2022/08/09 00:37:12;;;;;;;5.40;1.45;;;13.90;69.00;;;;;;4088164;28;20028;-88
2022/08/09 00:39:13;;;;;;;1.75;1.38;;;13.90;68.80;;;;;;4091488;28;20038;-86
2022/08/09 00:41:14;;;;;;;2.58;1.50;;;13.90;69.40;;;;;;4088358;28;20027;-88
2022/08/09 00:43:15;;;;;;;4.05;1.70;;;13.90;68.50;;;;;;4091784;28;20055;-88
2022/08/09 00:45:15;;;;;;;2.85;1.45;;;13.90;68.30;;;;;;4090531;28;20024;-86
2022/08/09 00:47:16;;;;;;;2.78;1.73;;;13.90;68.20;;;;;;4089940;28;20058;-88
2022/08/09 00:49:17;;;;;;;2.38;1.40;;;13.90;68.10;;;;;;4078466;29;20024;-88
2022/08/09 00:51:17;;;;;;;2.20;1.23;;;13.90;67.90;;;;;;4088946;28;20035;-88
2022/08/09 00:53:19;;;;;;;4.93;1.60;;;13.80;67.70;;;;;;4060556;29;20020;-88
2022/08/09 00:55:20;;;;;;;5.05;2.00;;;13.80;67.60;;;;;;4089504;28;20023;-88
2022/08/09 00:57:22;;;;;;;8.20;2.00;;;13.80;67.70;;;;;;4086973;28;20058;-88
2022/08/09 00:59:22;;;;;;;3.53;1.45;;;13.80;67.80;;;;;;4070006;29;20031;-87
2022/08/09 01:01:31;;;;;;;2.60;1.50;;;13.80;67.90;;;;;;4086250;28;20059;-89
2022/08/09 01:03:39;;;;;;;7.20;1.65;;;13.80;67.80;;;;;;4088480;28;20031;-89
2022/08/09 01:05:48;;;;;;;3.80;1.40;;;13.70;67.80;;;;;;4077204;29;20027;-89
2022/08/09 01:08:06;;;;;;;2.67;1.40;;;13.70;67.80;;;;;;4088498;28;20552;-89
2022/08/09 01:10:50;;;;;;;5.80;1.80;;;13.70;67.70;;;;;;4104608;28;20031;-88
2022/08/09 01:12:59;;;;;;;3.70;1.65;;;13.70;68.50;;;;;;4070588;28;20490;-90
2022/08/09 01:15:06;;;;;;;7.00;1.40;;;13.70;67.50;;;;;;4059793;29;20024;-89
2022/08/09 01:17:15;;;;;;;3.10;1.45;;;13.60;67.40;;;;;;4075260;29;20032;-89
2022/08/09 01:19:50;;;;;;;2.10;1.30;;;13.70;67.30;;;;;;4101716;28;20065;-87
2022/08/09 01:22:03;;;;;;;4.40;1.20;;;13.60;67.50;;;;;;4091939;28;20034;-90
2022/08/09 01:24:25;;;;;;;3.22;1.40;;;13.60;67.10;;;;;;4089135;28;20138;-89
2022/08/09 01:26:37;;;;;;;3.60;1.15;;;13.50;67.10;;;;;;4089132;28;20630;-87
2022/08/09 01:28:42;;;;;;;2.53;1.50;;;13.50;67.00;;;;;;4086713;28;20165;-89
2022/08/09 01:30:44;;;;;;;1.55;1.30;;;13.50;67.00;;;;;;4061581;29;20024;-88
2022/08/09 01:32:47;;;;;;;1.40;1.25;;;13.50;67.10;;;;;;4088076;28;20397;-87
2022/08/09 01:34:52;;;;;;;1.75;1.40;;;13.40;67.10;;;;;;4076180;29;20038;-86
2022/08/09 01:36:57;;;;;;;3.08;1.15;;;13.40;67.10;;;;;;4090404;28;20031;-87
2022/08/09 01:38:59;;;;;;;2.92;1.38;;;13.40;67.20;;;;;;4088084;28;20027;-87
2022/08/09 01:41:12;;;;;;;2.45;1.67;;;13.30;67.10;;;;;;4087285;28;20078;-88
2022/08/09 01:43:13;;;;;;;4.25;1.70;;;13.30;67.20;;;;;;4084960;28;20066;-88
2022/08/09 01:45:15;;;;;;;2.65;1.23;;;13.30;67.10;;;;;;4076212;28;20035;-88
2022/08/09 01:47:18;;;;;;;2.13;1.00;;;13.20;67.00;;;;;;4056864;29;20472;-88
2022/08/09 01:49:20;;;;;;;3.53;1.30;;;13.20;67.00;;;;;;4077496;28;20035;-86
2022/08/09 01:51:22;;;;;;;2.88;1.40;;;13.20;67.00;;;;;;4076303;28;20115;-86
2022/08/09 01:53:24;;;;;;;4.90;1.67;;;13.10;67.00;;;;;;4071184;28;20031;-87
2022/08/09 01:55:25;;;;;;;2.58;1.20;;;13.10;67.00;;;;;;4094045;28;20037;-84
2022/08/09 01:57:32;;;;;;;2.25;1.33;;;13.10;66.90;;;;;;4082892;28;20049;-84
2022/08/09 01:59:33;;;;;;;3.35;1.30;;;13.10;67.10;;;;;;4085390;28;20050;-85
2022/08/09 02:01:35;;;;;;;3.75;1.50;;;13.10;67.10;;;;;;4084349;28;20102;-87
2022/08/09 02:03:37;;;;;;;2.13;1.25;;;13.00;67.00;;;;;;4066355;29;20465;-87
2022/08/09 02:05:39;;;;;;;2.17;1.15;;;13.00;67.10;;;;;;4099915;28;20031;-87
2022/08/09 02:07:45;;;;;;;4.63;1.30;;;13.00;67.10;;;;;;4086868;28;20035;-84
2022/08/09 02:09:56;;;;;;;6.10;1.30;;;13.00;67.20;;;;;;4087250;28;20024;-84
2022/08/09 02:11:58;;;;;;;2.90;1.35;;;12.90;67.10;;;;;;4085898;28;21060;-84
2022/08/09 02:14:02;;;;;;;1.17;1.08;;;12.90;67.00;;;;;;4074237;29;20024;-85
2022/08/09 02:16:03;;;;;;;;;;;12.90;67.10;;;;;;4088144;28;20031;-88
2022/08/09 02:18:06;;;;;;;5.05;1.38;;;12.90;67.40;;;;;;4088298;28;19962;-85
2022/08/09 02:20:07;;;;;;;3.38;1.23;;;12.80;66.90;;;;;;4086835;28;20090;-86
2022/08/09 02:22:29;;;;;;;5.95;1.50;;;12.80;66.90;;;;;;4084665;28;20121;-86
2022/08/09 02:24:35;;;;;;;3.90;1.52;;;12.80;67.00;;;;;;4090019;28;20123;-85
2022/08/09 02:26:37;;;;;;;3.67;1.60;;;12.70;66.90;;;;;;4099877;28;20047;-87
2022/08/09 02:28:43;;;;;;;2.63;1.30;;;12.70;67.00;;;;;;4076688;29;20059;-83
2022/08/09 02:30:48;;;;;;;3.30;1.40;;;12.70;67.10;;;;;;4057989;29;20096;-85
2022/08/09 02:32:51;;;;;;;4.90;1.40;;;12.70;67.20;;;;;;4073389;29;20445;-85
2022/08/09 02:34:56;;;;;;;4.72;1.60;;;12.70;67.20;;;;;;4074535;29;20046;-87
2022/08/09 02:36:59;;;;;;;2.63;1.40;;;12.60;67.30;;;;;;4074894;29;20895;-84
2022/08/09 02:39:03;;;;;;;;;;;12.60;67.40;;;;;;4099121;28;20066;-85
2022/08/09 02:41:09;;;;;;;8.88;1.63;;;12.60;67.90;;;;;;4098045;28;19921;-85
2022/08/09 02:43:11;;;;;;;2.63;1.27;;;12.60;67.30;;;;;;4087651;28;20093;-85
2022/08/09 02:45:22;;;;;;;4.53;1.60;;;12.60;67.50;;;;;;4077217;29;20055;-85
2022/08/09 02:47:23;;;;;;;4.25;1.48;;;12.50;67.60;;;;;;4086861;28;20110;-86
2022/08/09 02:49:24;;;;;;;2.78;1.42;;;12.50;67.70;;;;;;4080540;28;20031;-86
2022/08/09 02:51:28;;;;;;;3.67;1.58;;;12.50;67.80;;;;;;4070830;29;20028;-85
2022/08/09 02:53:34;;;;;;;5.40;1.80;;;12.50;68.00;;;;;;4087138;28;20055;-87
2022/08/09 02:55:37;;;;;;;2.85;1.30;;;12.50;68.10;;;;;;4087271;28;20027;-85
2022/08/09 02:57:38;;;;;;;3.95;1.60;;;12.40;68.10;;;;;;4054447;29;20028;-85
2022/08/09 02:59:40;;;;;;;5.00;1.55;;;12.40;68.20;;;;;;4085244;28;20046;-85
2022/08/09 03:01:42;;;;;;;4.38;1.88;;;12.40;68.40;;;;;;4079874;28;20389;-88
2022/08/09 03:03:44;;;;;;;3.13;2.10;;;12.40;68.60;;;;;;4084152;28;20032;-85
2022/08/09 03:05:46;;;;;;;2.50;1.70;;;12.40;68.90;;;;;;4102505;28;20114;-85
2022/08/09 03:07:48;;;;;;;3.72;1.88;;;12.40;69.10;;;;;;4086426;28;20030;-85
2022/08/09 03:09:50;;;;;;;2.47;1.45;;;12.40;69.30;;;;;;4083850;28;20058;-85
2022/08/09 03:11:52;;;;;;;3.47;1.52;;;12.40;69.30;;;;;;4089460;28;20066;-84
2022/08/09 03:13:54;;;;;;;1.75;1.48;;;12.30;69.40;;;;;;4055166;29;20028;-84
2022/08/09 03:15:55;;;;;;;3.17;1.90;;;12.30;69.30;;;;;;4074417;29;20035;-84
2022/08/09 03:17:57;;;;;;;4.32;1.88;;;12.30;69.40;;;;;;4089147;28;20094;-88
2022/08/09 03:19:59;;;;;;;4.97;1.65;;;12.30;69.30;;;;;;4073713;29;20086;-84
2022/08/09 03:22:01;;;;;;;5.13;1.70;;;12.30;69.30;;;;;;4077895;29;20034;-84
2022/08/09 03:24:02;;;;;;;2.50;1.77;;;12.30;69.40;;;;;;4081862;28;20114;-82
2022/08/09 03:26:03;;;;;;;5.63;1.52;;;12.30;69.40;;;;;;4077009;28;20032;-86
2022/08/09 03:28:04;;;;;;;4.00;1.50;;;12.30;69.40;;;;;;4079652;28;20046;-85
2022/08/09 03:30:06;;;;;;;4.15;1.63;;;12.30;69.40;;;;;;4088415;28;20031;-82
2022/08/09 03:32:07;;;;;;;4.20;1.60;;;12.30;69.40;;;;;;4075996;28;20063;-82
2022/08/09 03:34:09;;;;;;;6.57;1.83;;;12.20;69.40;;;;;;4072233;28;20050;-83
2022/08/09 03:36:10;;;;;;;4.97;1.42;;;12.20;69.40;;;;;;4086435;28;20031;-83
2022/08/09 03:38:11;;;;;;;5.65;1.55;;;12.20;69.50;;;;;;4081544;28;20086;-83
2022/08/09 03:40:11;;;;;;;5.28;1.90;;;12.20;69.40;;;;;;4084802;28;20125;-82
2022/08/09 03:42:12;;;;;;;5.95;1.70;;;12.20;69.40;;;;;;4083114;28;20031;-82
2022/08/09 03:44:13;;;;;;;5.43;1.70;;;12.10;69.30;;;;;;4076947;29;20584;-83
2022/08/09 03:46:13;;;;;;;3.05;1.67;;;12.10;69.20;;;;;;4092154;28;20027;-83
2022/08/09 03:48:14;;;;;;;3.33;1.70;;;12.10;69.20;;;;;;4075995;29;21045;-82
2022/08/09 03:50:15;;;;;;;7.20;1.70;;;12.10;69.30;;;;;;4091179;28;20031;-82
2022/08/09 03:52:18;;;;;;;5.47;1.67;;;12.00;69.40;;;;;;4093330;28;20047;-83
2022/08/09 03:54:19;;;;;;;4.93;1.60;;;12.10;69.50;;;;;;4087381;28;20035;-82
2022/08/09 03:56:21;;;;;;;2.78;1.73;;;12.00;69.40;;;;;;4087281;28;20875;-82
2022/08/09 03:58:21;;;;;;;1.92;1.50;;;12.00;69.60;;;;;;4091064;28;20031;-79
2022/08/09 04:00:23;;;;;;;2.55;1.85;;;12.00;69.70;;;;;;4076221;29;20051;-81
2022/08/09 04:02:26;;;;;;;3.70;1.60;;;12.00;69.70;;;;;;4089948;28;20421;-78
2022/08/09 04:04:27;;;;;;;3.37;1.87;;;12.00;69.90;;;;;;4070388;29;20107;-81
2022/08/09 04:06:28;;;;;;;5.57;1.73;;;12.00;70.00;;;;;;4090186;28;20036;-80
2022/08/09 04:08:29;;;;;;;6.25;1.80;;;12.00;70.30;;;;;;4089567;28;20019;-78
2022/08/09 04:10:30;;;;;;;8.27;1.67;;;12.00;70.20;;;;;;4060303;29;20032;-79
2022/08/09 04:12:49;;;;;;;2.53;1.50;;;12.00;70.30;;;;;;4090491;28;20040;-80
2022/08/09 04:14:49;;;;;;;5.63;1.50;;;11.90;71.30;;;;;;4092261;28;20023;-79
2022/08/09 04:16:50;;;;;;;5.10;1.77;;;12.00;70.60;;;;;;4089949;28;20698;-81
2022/08/09 04:18:51;;;;;;;2.70;1.65;;;12.00;70.70;;;;;;4092479;28;21289;-78
2022/08/09 04:20:51;;;;;;;5.45;1.80;;;12.00;70.90;;;;;;4087610;28;21585;-81
2022/08/09 04:22:52;;;;;;;5.45;2.10;;;12.00;71.10;;;;;;4090107;28;20035;-79
2022/08/09 04:24:53;;;;;;;3.42;1.88;;;12.00;71.30;;;;;;4076215;29;20174;-78
2022/08/09 04:26:53;;;;;;;3.05;1.95;;;12.00;71.50;;;;;;4083998;28;22076;-79
2022/08/09 04:28:54;;;;;;;5.22;2.33;;;12.10;71.90;;;;;;4100022;28;20046;-78
2022/08/09 04:30:55;;;;;;;4.32;2.10;;;12.10;72.30;;;;;;4073160;29;20039;-80
2022/08/09 04:32:55;;;;;;;6.47;1.92;;;12.10;72.70;;;;;;4090617;28;20417;-81
2022/08/09 04:34:56;;;;;;;3.38;2.25;;;12.20;73.40;;;;;;4096263;28;20720;-83
2022/08/09 04:36:57;;;;;;;5.55;1.92;;;12.20;73.70;;;;;;4091817;28;20039;-85
2022/08/09 04:39:01;;;;;;;5.72;1.92;;;12.30;74.10;;;;;;4062010;29;20387;-82
2022/08/09 04:41:01;;;;;;;;;;;12.40;74.40;;;;;;4090573;28;20099;-81
2022/08/09 04:43:02;;;;;;;3.55;2.15;;;12.40;75.50;;;;;;4089944;28;20311;-81
2022/08/09 04:45:04;;;;;;;3.70;2.22;;;12.50;74.30;;;;;;4108603;28;20401;-81
2022/08/09 04:47:05;;;;;;;5.18;2.65;;;12.60;74.40;;;;;;4089513;28;20043;-82
2022/08/09 04:49:06;;;;;;;5.47;2.20;;;12.70;74.60;;;;;;4088470;28;20086;-80
2022/08/09 04:51:06;;;;;;;2.40;2.00;;;12.70;74.90;;;;;;4087674;28;20047;-81
2022/08/09 04:53:09;;;;;;;6.28;2.15;;;12.80;75.20;;;;;;4104517;28;20047;-81
2022/08/09 04:55:09;;;;;;;7.13;2.40;;;12.80;75.60;;;;;;4087296;28;20225;-81
2022/08/09 04:57:10;;;;;;;4.63;2.33;;;12.90;75.90;;;;;;4087831;28;20390;-79
2022/08/09 04:59:11;;;;;;;5.80;2.60;;;13.00;76.20;;;;;;4074414;29;20035;-81
2022/08/09 05:01:12;;;;;;;6.78;2.50;;;13.10;76.40;;;;;;4074186;29;20457;-81
2022/08/09 05:03:13;;;;;;;8.80;2.50;;;13.20;76.70;;;;;;4068958;29;20078;-80
2022/08/09 05:05:13;;;;;;;4.75;2.40;;;13.30;77.00;;;;;;4072970;29;20027;-81
2022/08/09 05:07:14;;;;;;;3.97;2.38;;;13.30;77.20;;;;;;4086653;28;20441;-82
2022/08/09 05:09:15;;;;;;;3.92;2.03;;;13.40;77.40;;;;;;4090307;28;20035;-80
2022/08/09 05:11:16;;;;;;;6.15;2.58;;;13.50;77.30;;;;;;4085366;28;20034;-83
2022/08/09 05:13:17;;;;;;;5.10;2.15;;;13.60;77.40;;;;;;4087359;28;20452;-80
2022/08/09 05:15:18;;;;;;;4.30;1.98;;;13.70;77.30;;;;;;4071104;29;20036;-80
2022/08/09 05:17:19;;;;;;;4.60;2.10;;;13.80;77.50;;;;;;4084373;28;20039;-81
2022/08/09 05:19:20;;;;;;;5.93;1.95;;;13.90;77.70;;;;;;4086064;28;20027;-80
2022/08/09 05:21:21;;;;;;;13.65;2.30;;;14.10;78.00;;;;;;4100517;28;20031;-79
2022/08/09 05:23:22;;;;;;;3.03;2.05;;;14.20;77.90;;;;;;4084697;28;20131;-78
2022/08/09 05:25:23;;;;;;;5.22;2.25;;;14.30;77.60;;;;;;4074225;29;20103;-78
2022/08/09 05:27:24;;;;;;;3.35;2.20;;;14.40;77.10;;;;;;4085897;28;20051;-79
2022/08/09 05:29:25;;;;;;;3.45;1.75;;;14.50;76.70;;;;;;4082038;28;20484;-81
2022/08/09 05:31:25;;;;;;;4.15;1.77;;;14.60;76.30;;;;;;4102796;28;20801;-80
2022/08/09 05:33:26;;;;;;;2.47;1.65;;;14.60;75.90;;;;;;4094589;28;21451;-78
2022/08/09 05:35:27;;;;;;;5.32;2.00;;;14.70;75.70;;;;;;4096591;28;21287;-79
2022/08/09 05:37:27;;;;;;;7.10;2.10;;;14.70;75.30;;;;;;4079126;28;20028;-81
2022/08/09 05:39:28;;;;;;;5.45;1.95;;;14.80;75.20;;;;;;4086656;28;20709;-81
2022/08/09 05:41:29;;;;;;;2.47;1.75;;;14.90;75.20;;;;;;4070176;29;20043;-79
2022/08/09 05:43:29;;;;;;;5.60;1.88;;;14.90;75.10;;;;;;4074848;29;20547;-81
2022/08/09 05:45:30;;;;;;;2.70;2.03;;;15.00;75.90;;;;;;4098396;28;20945;-81
2022/08/09 05:47:31;;;;;;;3.08;1.67;;;15.00;75.10;;;;;;4090522;28;20031;-81
2022/08/09 05:49:32;;;;;;;2.58;1.90;;;15.10;75.20;;;;;;4089866;28;20034;-81
2022/08/09 05:51:33;;;;;;;3.30;2.05;;;15.10;75.10;;;;;;4073971;29;20032;-82
2022/08/09 05:53:33;;;;;;;4.82;2.10;;;15.20;75.20;;;;;;4089534;28;20031;-79
2022/08/09 05:55:34;;;;;;;3.92;2.20;;;15.20;75.20;;;;;;4072596;29;21314;-80
2022/08/09 05:57:36;;;;;;;4.47;1.90;;;15.30;75.20;;;;;;4087925;28;20024;-80
2022/08/09 05:59:37;;;;;;;4.80;2.42;;;15.30;75.10;;;;;;4089221;28;20095;-78
2022/08/09 06:01:37;;;;;;;4.65;2.47;;;15.40;75.10;;;;;;4075479;29;22207;-78
2022/08/09 06:03:38;;;;;;;5.38;2.50;;;15.40;75.30;;;;;;4086438;28;21554;-79
2022/08/09 06:05:39;;;;;;;6.47;2.33;;;15.40;75.10;;;;;;4087992;28;20039;-78
2022/08/09 06:07:39;;;;;;;3.42;2.72;;;15.40;74.80;;;;;;4099880;28;20110;-81
2022/08/09 06:09:40;;;;;;;4.05;2.55;;;15.50;74.70;;;;;;4087120;28;20019;-79
2022/08/09 06:11:41;;;;;;;4.28;2.50;;;15.60;74.70;;;;;;4081260;28;20023;-80
2022/08/09 06:13:42;;;;;;;7.20;2.60;;;15.60;74.40;;;;;;4067559;29;20035;-80
2022/08/09 06:15:43;;;;;;;6.00;2.97;;;15.70;74.30;;;;;;4084816;28;20070;-80
2022/08/09 06:17:44;;;;;;;7.90;2.97;;;15.70;74.20;;;;;;4083175;28;20038;-80
2022/08/09 06:19:44;;;;;;;6.47;2.60;;;15.70;73.90;;;;;;4086179;28;20046;-78
2022/08/09 06:21:45;;;;;;;6.47;2.90;;;15.80;73.70;;;;;;4081067;28;20177;-78
2022/08/09 06:23:47;;;;;;;5.63;3.25;;;15.90;73.60;;;;;;4099666;28;20122;-80
2022/08/09 06:25:48;;;;;;;9.02;3.03;;;15.90;73.40;;;;;;4087633;28;20027;-81
2022/08/09 06:27:49;;;;;;;5.90;3.10;;;16.00;73.40;;;;;;4085789;28;20055;-82
2022/08/09 06:29:49;;;;;;;8.50;2.80;;;16.00;73.40;;;;;;4075792;29;20024;-81
2022/08/09 06:31:50;;;;;;;4.78;2.25;;;16.10;73.50;;;;;;4088986;28;20038;-82
2022/08/09 06:33:51;;;;;;;3.13;1.63;;;16.10;73.60;;;;;;4085578;28;20116;-81
2022/08/09 06:35:51;;;;;;;3.58;2.10;;;16.20;73.30;;;;;;4090041;28;20493;-79
2022/08/09 06:37:52;;;;;;;6.70;2.17;;;16.30;72.90;;;;;;4088077;28;20040;-82
2022/08/09 06:39:53;;;;;;;2.05;1.42;;;16.40;72.40;;;;;;4085150;28;20035;-79
2022/08/09 06:41:53;;;;;;;2.70;1.60;;;16.50;71.60;;;;;;4085889;28;20039;-82
2022/08/09 06:43:54;;;;;;;3.50;1.50;;;16.50;70.90;;;;;;4075312;29;20750;-79
2022/08/09 06:45:54;;;;;;;2.28;1.50;;;16.60;70.90;;;;;;4083840;28;20031;-82
2022/08/09 06:47:55;;;;;;;4.63;1.40;;;16.70;70.70;;;;;;4070918;29;20047;-81
2022/08/09 06:49:56;;;;;;;2.03;1.33;;;16.70;70.50;;;;;;4088263;28;20150;-81
2022/08/09 06:51:57;;;;;;;2.10;1.30;;;16.80;70.10;;;;;;4065573;29;20036;-79
2022/08/09 06:53:58;;;;;;;2.20;1.10;;;16.90;69.50;;;;;;4087265;28;20031;-82
2022/08/09 06:55:59;;;;;;;1.50;1.08;;;17.00;69.40;;;;;;4083357;28;20154;-81
2022/08/09 06:58:00;;;;;;;1.40;1.10;;;17.10;68.80;;;;;;4089266;28;20082;-81
2022/08/09 07:00:01;;;;;;;1.48;1.05;;;17.20;68.30;;;;;;4075185;29;20097;-79
2022/08/09 07:02:02;;;;;;;1.70;1.10;;;17.20;67.00;;;;;;4101414;28;20035;-80
2022/08/09 07:04:03;;;;;;;3.33;1.38;;;17.30;66.40;;;;;;4084674;28;20070;-81
2022/08/09 07:06:03;;;;;;;2.60;1.10;;;17.40;66.30;;;;;;4089443;28;20477;-78
2022/08/09 07:08:04;;;;;;;2.33;1.40;;;17.50;66.10;;;;;;4090537;28;20027;-82
2022/08/09 07:10:05;;;;;;;3.17;1.20;;;17.60;65.70;;;;;;4086799;28;20046;-79
2022/08/09 07:12:06;;;;;;;1.92;1.00;;;17.70;65.30;;;;;;4056027;29;20024;-79
2022/08/09 07:14:06;;;;;;;2.95;0.90;;;17.80;65.00;;;;;;4089544;28;20039;-81
2022/08/09 07:16:07;;;;;;;3.15;1.15;;;17.80;64.20;;;;;;4076385;29;20040;-81
2022/08/09 07:18:08;;;;;;;1.80;0.93;;;17.90;64.00;;;;;;4108761;28;20050;-82
2022/08/09 07:20:09;;;;;;;1.92;1.20;;;17.90;63.70;;;;;;4091736;28;20455;-82
2022/08/09 07:22:10;;;;;;;1.13;0.90;;;17.90;63.30;;;;;;4089380;28;20030;-81
2022/08/09 07:24:10;;;;;;;0.75;0.70;;;18.00;62.50;;;;;;4074591;29;20036;-80
2022/08/09 07:26:11;;;;;;;1.20;0.90;;;18.00;62.40;;;;;;4078372;29;20036;-81
2022/08/09 07:28:12;;;;;;;2.20;1.05;;;18.10;61.40;;;;;;4093080;28;20035;-82
2022/08/09 07:30:14;;;;;;;3.25;0.98;;;18.10;61.10;;;;;;4104180;28;20046;-80
2022/08/09 07:32:14;;;;;;;2.83;0.80;;;18.10;60.90;;;;;;4093990;28;20311;-82
2022/08/09 07:34:15;;;;;;;2.50;0.60;;;18.20;61.00;;;;;;4076904;29;20091;-80
2022/08/09 07:36:17;;;;;;;0.60;0.60;;;18.20;60.70;;;;;;4091341;28;20031;-82
2022/08/09 07:38:17;;;;;;;2.17;0.70;;;18.20;60.50;;;;;;4077857;29;20031;-80
2022/08/09 07:40:19;;;;;;;2.10;0.50;;;18.30;59.70;;;;;;4087756;28;20023;-82
2022/08/09 07:42:22;;;;;;;1.02;0.60;;;18.30;59.50;;;;;;4081423;29;20020;-81
2022/08/09 07:44:23;;;;;;;0.77;0.60;;;18.40;59.30;;;;;;4071857;29;20525;-79
2022/08/09 07:46:24;;;;;;;0.70;0.70;;;18.40;59.20;;;;;;4093001;28;20123;-78
2022/08/09 07:48:25;;;;;;;1.45;0.95;;;18.40;59.00;;;;;;4088457;28;20043;-82
2022/08/09 07:50:28;;;;;;;1.30;0.80;;;18.50;58.70;;;;;;4076909;29;20629;-79
2022/08/09 07:52:28;;;;;;;0.57;0.57;;;18.50;59.00;;;;;;4072467;29;20116;-81
2022/08/09 07:54:30;;;;;;;0.80;0.60;;;18.60;59.00;;;;;;4091168;28;20156;-82
2022/08/09 07:56:32;;;;;;;1.95;0.50;;;18.60;58.50;;;;;;4089244;28;20039;-80
2022/08/09 07:58:33;;;;;;;1.83;0.70;;;18.70;58.20;;;;;;4098132;28;20125;-81
2022/08/09 08:00:34;;;;;;;1.00;0.80;;;18.70;58.20;;;;;;4088504;28;20035;-81
2022/08/09 08:02:34;;;;;;;1.02;0.70;;;18.80;58.10;;;;;;4076758;29;20040;-81
2022/08/09 08:04:35;;;;;;;1.08;0.68;;;18.80;58.10;;;;;;4081581;29;20035;-83
2022/08/09 08:06:36;;;;;;;1.00;0.70;;;18.90;57.80;;;;;;4094180;28;20039;-81
2022/08/09 08:08:37;;;;;;;0.80;0.80;;;18.90;57.70;;;;;;4076375;29;20096;-78
2022/08/09 08:10:37;;;;;;;1.58;0.70;;;18.90;57.30;;;;;;4092594;28;20031;-81
2022/08/09 08:12:41;;;;;;;1.75;0.70;;;18.90;57.20;;;;;;4079793;29;20032;-82
2022/08/09 08:14:42;;;;;;;;;;;18.90;57.30;;;;;;4088922;28;20703;-80
2022/08/09 08:16:42;;;;;;;3.08;0.80;;;18.90;57.10;;;;;;4079993;29;19914;-82
2022/08/09 08:18:43;;;;;;;2.53;0.70;;;19.00;57.00;;;;;;4092289;28;20046;-81
2022/08/09 08:20:44;;;;;;;1.58;0.80;;;19.00;57.40;;;;;;4074520;29;20105;-79
2022/08/09 08:22:44;;;;;;;0.90;0.80;;;19.00;57.50;;;;;;4081302;28;20063;-80
2022/08/09 08:24:46;;;;;;;1.80;0.80;;;19.00;57.60;;;;;;4101230;28;20035;-82
2022/08/09 08:26:47;;;;;;;0.82;0.70;;;19.10;57.60;;;;;;4090588;28;20457;-80
2022/08/09 08:28:48;;;;;;;0.80;0.60;;;19.10;57.40;;;;;;4093316;28;20035;-83
2022/08/09 08:30:49;;;;;;;0.57;0.55;;;19.20;57.40;;;;;;4076569;29;20512;-87
2022/08/09 08:32:51;;;;;;;1.25;0.70;;;19.30;57.10;;;;;;4086725;28;20054;-87
2022/08/09 08:34:53;;;;;;;1.27;0.60;;;19.30;56.60;;;;;;4066101;29;20603;-84
2022/08/09 08:36:53;;;;;;;2.25;0.70;;;19.40;56.60;;;;;;4089170;28;20417;-86
2022/08/09 08:38:54;;;;;;;3.60;0.77;;;19.50;56.10;;;;;;4070360;29;20039;-87
2022/08/09 08:40:57;;;;;;;1.35;0.60;;;19.50;55.90;;;;;;4093090;28;20063;-87
2022/08/09 08:42:57;;;;;;;0.85;0.63;;;19.60;55.70;;;;;;4075674;29;20098;-87
2022/08/09 08:45:00;;;;;;;1.33;0.70;;;19.60;55.50;;;;;;4093163;28;20065;-88
2022/08/09 08:47:01;;;;;;;1.10;0.43;;;19.70;55.30;;;;;;4075553;29;20035;-88
2022/08/09 08:49:02;;;;;;;0.90;0.50;;;19.70;54.90;;;;;;4098851;28;20551;-87
2022/08/09 08:51:03;;;;;;;0.32;0.32;;;19.80;54.90;;;;;;4067316;29;20049;-86
2022/08/09 08:53:04;;;;;;;0.43;0.43;;;19.80;54.90;;;;;;4087369;28;20350;-90
2022/08/09 08:55:06;;;;;;;4.80;0.70;;;19.90;54.90;;;;;;4066881;29;20520;-87
2022/08/09 08:57:08;;;;;;;0.85;0.55;;;19.90;54.70;;;;;;4067347;29;20493;-87
2022/08/09 08:59:11;;;;;;;1.33;0.60;;;19.90;54.60;;;;;;4088857;28;20035;-87
2022/08/09 09:01:14;;;;;;;0.82;0.35;;;20.00;54.50;;;;;;4086414;28;20057;-86
2022/08/09 09:03:15;;;;;;;0.43;0.30;;;20.00;54.40;;;;;;4088368;28;20455;-88
2022/08/09 09:05:24;;;;;;;0.40;0.30;;;20.10;54.30;;;;;;4075996;29;20559;-88
2022/08/09 09:07:26;;;;;;;0.75;0.50;;;20.10;53.70;;;;;;4071066;29;20599;-86
2022/08/09 09:09:28;;;;;;;2.05;0.47;;;20.20;53.70;;;;;;4073270;29;20043;-89
2022/08/09 09:11:34;;;;;;;0.73;0.60;;;20.20;53.10;;;;;;4084049;28;20035;-86
2022/08/09 09:13:38;;;;;;;1.00;0.50;;;20.30;52.90;;;;;;4066995;29;20532;-86
2022/08/09 09:15:39;;;;;;;1.00;0.40;;;20.30;52.90;;;;;;4054733;29;20753;-86
2022/08/09 09:17:39;;;;;;;0.40;0.40;;;20.30;53.10;;;;;;4080880;28;20062;-87
2022/08/09 09:19:41;;;;;;;1.08;0.45;;;20.40;53.30;;;;;;4088124;28;20063;-89
2022/08/09 09:22:08;;;;;;;1.30;0.63;;;20.50;52.70;;;;;;4088967;28;20497;-86
2022/08/09 09:24:08;;;;;;;1.42;0.60;;;20.50;51.50;;;;;;4099189;28;20018;-86
2022/08/09 09:26:12;;;;;;;4.68;0.63;;;20.60;51.80;;;;;;4083725;28;20040;-88
2022/08/09 09:28:13;;;;;;;1.20;0.30;;;20.60;52.10;;;;;;4067125;29;20031;-87
2022/08/09 09:30:14;;;;;;;0.70;0.40;;;20.70;52.10;;;;;;4084075;28;20038;-86
2022/08/09 09:32:23;;;;;;;2.13;0.50;;;20.70;52.00;;;;;;4081664;28;20027;-84
2022/08/09 09:34:24;;;;;;;0.40;0.35;;;20.80;50.90;;;;;;4057326;29;20036;-87
2022/08/09 09:36:36;;;;;;;1.15;0.40;;;20.90;51.60;;;;;;4087566;28;20038;-87
2022/08/09 09:38:51;;;;;;;0.60;0.37;;;20.90;50.50;;;;;;4088999;28;20505;-88
2022/08/09 09:40:51;;;;;;;0.88;0.43;;;21.00;50.50;;;;;;4090099;28;20791;-90
2022/08/09 09:42:56;;;;;;;0.98;0.50;;;21.00;49.60;;;;;;4087716;28;20037;-90
2022/08/09 09:45:03;;;;;;;1.33;0.50;;;21.10;49.30;;;;;;4104680;28;20042;-87
2022/08/09 09:47:08;;;;;;;1.20;0.50;;;21.20;50.20;;;;;;4071289;29;20485;-86
2022/08/09 09:49:17;;;;;;;0.73;0.47;;;21.20;50.20;;;;;;4086888;28;20027;-87
2022/08/09 09:51:21;;;;;;;0.47;0.30;;;21.20;50.00;;;;;;4087726;28;20039;-87
2022/08/09 09:53:25;;;;;;;0.40;0.40;;;21.30;49.60;;;;;;4097909;28;20571;-88
2022/08/09 09:55:26;;;;;;;0.82;0.43;;;21.30;49.70;;;;;;4093402;28;20023;-88
2022/08/09 09:57:26;;;;;;;1.00;0.52;;;21.30;48.60;;;;;;4086716;28;20031;-89
2022/08/09 09:59:34;;;;;;;2.15;0.57;;;21.30;48.90;;;;;;4104468;28;20034;-88
2022/08/09 10:01:34;;;;;;;1.10;0.50;;;21.30;48.90;;;;;;4089488;28;20015;-88
2022/08/09 10:04:12;;;;;;;0.47;0.30;;;21.40;48.90;;;;;;4092422;28;20809;-88
2022/08/09 10:06:13;;;;;;;2.85;0.40;;;21.40;47.80;;;;;;4065573;28;20247;-88
2022/08/09 10:08:21;;;;;;;0.70;0.50;;;21.40;48.80;;;;;;4088690;28;20079;-89
2022/08/09 10:10:29;;;;;;;5.30;0.47;;;21.40;48.50;;;;;;4061349;29;20040;-89
2022/08/09 10:12:35;;;;;;;0.65;0.40;;;21.40;49.30;;;;;;4091055;28;20524;-86
2022/08/09 10:14:36;;;;;;;0.88;0.40;;;21.50;49.50;;;;;;4069964;29;20094;-87
2022/08/09 10:16:37;;;;;;;0.70;0.50;;;21.50;49.10;;;;;;4069587;29;20032;-88
2022/08/09 10:18:38;;;;;;;3.40;0.55;;;21.60;49.00;;;;;;4085709;28;20035;-87
2022/08/09 10:20:39;;;;;;;1.20;0.60;;;21.60;48.40;;;;;;4104245;28;20535;-87
2022/08/09 10:22:39;;;;;;;0.90;0.32;;;21.70;49.00;;;;;;4092696;28;20031;-87
2022/08/09 10:24:40;;;;;;;1.13;0.43;;;21.70;48.70;;;;;;4084111;28;20039;-87
2022/08/09 10:26:41;;;;;;;0.32;0.28;;;21.80;48.70;;;;;;4088856;28;20118;-86
2022/08/09 10:28:43;;;;;;;0.90;0.38;;;21.80;48.70;;;;;;4078321;29;20039;-87
2022/08/09 10:30:43;;;;;;;1.83;0.50;;;21.90;48.30;;;;;;4075228;29;20027;-86
2022/08/09 10:32:45;;;;;;;0.77;0.50;;;21.90;48.50;;;;;;4087206;28;20085;-87
2022/08/09 10:34:46;;;;;;;0.88;0.50;;;21.90;48.10;;;;;;4089621;29;20035;-87
2022/08/09 10:36:53;;;;;;;0.40;0.28;;;21.90;47.90;;;;;;4093098;28;20516;-87
2022/08/09 10:38:54;;;;;;;0.77;0.40;;;21.90;48.20;;;;;;4105615;28;20459;-87